Terminal Aerodrome Forecast
Issued by NWS

Home | Current Version | Previous Version | Text Only | Print | Product List | Glossary On
Versions: 1 2 3 4 5 6 7 8 9 10 11 12 13 14 15 16 17 18
044
FTUS46 KLOX 271139
TAFLGB
TAF
KLGB 271139Z 2712/2812 VRB03KT P6SM SKC
     FM271600 19006KT P6SM SCT120
     FM272300 29009KT P6SM SCT120
     FM280500 VRB03KT P6SM SKC
     FM281000 VRB03KT 5SM BR BKN006=

USA.gov is the U.S. government's official web portal to all federal, state and local government web resources and services.